Time,TemperatureF,DewpointF,PressureIn,WindDirection,WindDirectionDegrees,WindSpeedMPH,WindSpeedGustMPH,Humidity,HourlyPrecipIn,Conditions,Clouds,dailyrainin,SolarRadiationWatts/m^2,SoftwareType,DateUTC
2013-06-15 00:02:00,38.0,32.0,-100.00,West,271,2.0,4.0,79,0.00,,,0.00,2.000000,,2013-06-15 06:02:00,
2013-06-15 00:11:00,38.0,32.0,-100.00,West,271,2.0,4.0,79,0.00,,,0.00,2.000000,,2013-06-15 06:11:00,
2013-06-15 00:33:00,37.0,31.0,-100.00,WNW,285,2.0,3.0,80,0.00,,,0.00,0.000000,,2013-06-15 06:33:00,
2013-06-15 00:43:00,37.0,31.0,-100.00,WNW,285,2.0,3.0,80,0.00,,,0.00,0.000000,,2013-06-15 06:43:00,
2013-06-15 00:53:00,37.0,31.0,-100.00,WNW,285,2.0,3.0,80,0.00,,,0.00,0.000000,,2013-06-15 06:53:00,
2013-06-15 01:01:00,37.0,31.0,-100.00,WNW,285,2.0,3.0,80,0.00,,,0.00,0.000000,,2013-06-15 07:01:00,
2013-06-15 01:11:00,37.0,31.0,-100.00,WNW,285,2.0,3.0,80,0.00,,,0.00,0.000000,,2013-06-15 07:11:00,
2013-06-15 01:43:00,37.0,31.0,-100.00,NW,309,1.0,3.0,79,0.00,,,0.00,0.000000,,2013-06-15 07:43:00,
2013-06-15 01:53:00,37.0,31.0,-100.00,NW,309,1.0,3.0,79,0.00,,,0.00,0.000000,,2013-06-15 07:53:00,
2013-06-15 02:02:00,37.0,31.0,-100.00,NW,309,1.0,3.0,79,0.00,,,0.00,0.000000,,2013-06-15 08:02:00,
2013-06-15 02:11:00,37.0,31.0,-100.00,NW,309,1.0,3.0,79,0.00,,,0.00,0.000000,,2013-06-15 08:11:00,
2013-06-15 02:43:00,37.0,30.0,-100.00,North,349,2.0,3.0,77,0.00,,,0.00,0.000000,,2013-06-15 08:43:00,
2013-06-15 02:53:00,37.0,30.0,-100.00,North,349,2.0,3.0,77,0.00,,,0.00,0.000000,,2013-06-15 08:53:00,
2013-06-15 03:02:00,37.0,30.0,-100.00,North,349,2.0,3.0,77,0.00,,,0.00,0.000000,,2013-06-15 09:02:00,
2013-06-15 03:12:00,37.0,30.0,-100.00,North,349,2.0,3.0,77,0.00,,,0.00,0.000000,,2013-06-15 09:12:00,
2013-06-15 03:43:00,39.0,30.0,-100.00,ENE,76,1.0,4.0,69,0.00,,,0.00,0.000000,,2013-06-15 09:43:00,
2013-06-15 03:52:00,39.0,30.0,-100.00,ENE,76,1.0,4.0,69,0.00,,,0.00,0.000000,,2013-06-15 09:52:00,
2013-06-15 04:02:00,39.0,30.0,-100.00,ENE,76,1.0,4.0,69,0.00,,,0.00,0.000000,,2013-06-15 10:02:00,
2013-06-15 04:11:00,39.0,30.0,-100.00,ENE,76,1.0,4.0,69,0.00,,,0.00,0.000000,,2013-06-15 10:11:00,
2013-06-15 04:44:00,39.0,30.0,-100.00,NE,51,2.0,4.0,69,0.00,,,0.00,0.000000,,2013-06-15 10:44:00,
2013-06-15 04:53:00,39.0,30.0,-100.00,NE,51,2.0,4.0,69,0.00,,,0.00,0.000000,,2013-06-15 10:53:00,
2013-06-15 05:01:00,39.0,30.0,-100.00,NE,51,2.0,4.0,69,0.00,,,0.00,0.000000,,2013-06-15 11:01:00,
2013-06-15 05:11:00,39.0,30.0,-100.00,NE,51,2.0,4.0,69,0.00,,,0.00,0.000000,,2013-06-15 11:11:00,
2013-06-15 05:33:00,39.0,29.0,-100.00,East,96,1.0,3.0,67,0.00,,,0.00,0.000000,,2013-06-15 11:33:00,
2013-06-15 05:43:00,39.0,29.0,-100.00,East,96,1.0,3.0,67,0.00,,,0.00,0.000000,,2013-06-15 11:43:00,
2013-06-15 05:53:00,39.0,29.0,-100.00,East,96,1.0,3.0,67,0.00,,,0.00,0.000000,,2013-06-15 11:53:00,
2013-06-15 06:01:00,39.0,29.0,-100.00,East,96,1.0,3.0,67,0.00,,,0.00,0.000000,,2013-06-15 12:01:00,
2013-06-15 06:11:00,39.0,29.0,-100.00,East,96,1.0,3.0,67,0.00,,,0.00,0.000000,,2013-06-15 12:11:00,
2013-06-15 06:33:00,39.0,28.0,-100.00,ENE,70,1.0,3.0,64,0.00,,,0.00,0.000000,,2013-06-15 12:33:00,
2013-06-15 06:43:00,39.0,28.0,-100.00,ENE,70,1.0,3.0,64,0.00,,,0.00,0.000000,,2013-06-15 12:43:00,
2013-06-15 06:52:00,39.0,28.0,-100.00,ENE,70,1.0,3.0,64,0.00,,,0.00,0.000000,,2013-06-15 12:52:00,
2013-06-15 07:02:00,39.0,28.0,-100.00,ENE,70,1.0,3.0,64,0.00,,,0.00,0.000000,,2013-06-15 13:02:00,
2013-06-15 07:11:00,39.0,28.0,-100.00,ENE,70,1.0,3.0,64,0.00,,,0.00,0.000000,,2013-06-15 13:11:00,
2013-06-15 07:44:00,39.0,27.0,-100.00,NE,43,2.0,3.0,62,-99.99,,,0.00,5.000000,,2013-06-15 13:44:00,
2013-06-15 07:53:00,39.0,27.0,-100.00,NE,43,2.0,3.0,62,-99.99,,,0.00,5.000000,,2013-06-15 13:53:00,
2013-06-15 08:01:00,39.0,27.0,-100.00,NE,43,2.0,3.0,62,-99.99,,,0.00,5.000000,,2013-06-15 14:01:00,
2013-06-15 08:12:00,39.0,27.0,-100.00,NE,43,2.0,3.0,62,-99.99,,,0.00,5.000000,,2013-06-15 14:12:00,
2013-06-15 08:34:00,44.0,27.0,-100.00,East,97,1.0,4.0,51,0.00,,,0.00,78.000000,,2013-06-15 14:34:00,
2013-06-15 08:43:00,44.0,27.0,-100.00,East,97,1.0,4.0,51,0.00,,,0.00,78.000000,,2013-06-15 14:43:00,
2013-06-15 08:53:00,44.0,27.0,-100.00,East,97,1.0,4.0,51,0.00,,,0.00,78.000000,,2013-06-15 14:53:00,
2013-06-15 09:01:00,44.0,27.0,-100.00,East,97,1.0,4.0,51,0.00,,,0.00,78.000000,,2013-06-15 15:01:00,
2013-06-15 09:11:00,44.0,27.0,-100.00,East,97,1.0,4.0,51,0.00,,,0.00,78.000000,,2013-06-15 15:11:00,
2013-06-15 09:43:00,45.0,31.0,-100.00,East,98,3.0,4.0,58,0.00,,,0.00,363.000000,,2013-06-15 15:43:00,
2013-06-15 09:53:00,45.0,31.0,-100.00,East,98,3.0,4.0,58,0.00,,,0.00,363.000000,,2013-06-15 15:53:00,
2013-06-15 10:01:00,45.0,31.0,-100.00,East,98,3.0,4.0,58,0.00,,,0.00,363.000000,,2013-06-15 16:01:00,
2013-06-15 10:11:00,45.0,31.0,-100.00,East,98,3.0,4.0,58,0.00,,,0.00,363.000000,,2013-06-15 16:11:00,
2013-06-15 10:43:00,49.0,25.0,-100.00,SE,145,3.0,7.0,39,0.00,,,0.00,596.000000,,2013-06-15 16:43:00,
2013-06-15 10:53:00,49.0,25.0,-100.00,SE,145,3.0,7.0,39,0.00,,,0.00,596.000000,,2013-06-15 16:53:00,
2013-06-15 11:01:00,49.0,25.0,-100.00,SE,145,3.0,7.0,39,0.00,,,0.00,596.000000,,2013-06-15 17:01:00,
2013-06-15 11:11:00,49.0,25.0,-100.00,SE,145,3.0,7.0,39,0.00,,,0.00,596.000000,,2013-06-15 17:11:00,
2013-06-15 11:43:00,52.0,32.0,-100.00,SW,226,2.0,6.0,47,0.00,,,0.00,793.000000,,2013-06-15 17:43:00,
2013-06-15 11:52:00,52.0,32.0,-100.00,SW,226,2.0,6.0,47,0.00,,,0.00,793.000000,,2013-06-15 17:52:00,
2013-06-15 12:01:00,52.0,32.0,-100.00,SW,226,2.0,6.0,47,0.00,,,0.00,793.000000,,2013-06-15 18:01:00,
2013-06-15 12:11:00,52.0,32.0,-100.00,SW,226,2.0,6.0,47,0.00,,,0.00,793.000000,,2013-06-15 18:11:00,
2013-06-15 12:33:00,56.0,36.0,-100.00,SW,227,3.0,7.0,46,0.00,,,0.00,961.000000,,2013-06-15 18:33:00,
2013-06-15 12:43:00,56.0,36.0,-100.00,SW,227,3.0,7.0,46,0.00,,,0.00,961.000000,,2013-06-15 18:43:00,
2013-06-15 12:53:00,56.0,36.0,-100.00,SW,227,3.0,7.0,46,0.00,,,0.00,961.000000,,2013-06-15 18:53:00,
2013-06-15 13:01:00,56.0,36.0,-100.00,SW,227,3.0,7.0,46,0.00,,,0.00,961.000000,,2013-06-15 19:01:00,
2013-06-15 13:11:00,56.0,36.0,-100.00,SW,227,3.0,7.0,46,0.00,,,0.00,961.000000,,2013-06-15 19:11:00,
2013-06-15 13:33:00,58.0,24.0,-100.00,SW,225,3.0,7.0,27,0.00,,,0.00,1084.000000,,2013-06-15 19:33:00,
2013-06-15 13:43:00,58.0,24.0,-100.00,SW,225,3.0,7.0,27,0.00,,,0.00,1084.000000,,2013-06-15 19:43:00,
2013-06-15 13:53:00,58.0,24.0,-100.00,SW,225,3.0,7.0,27,0.00,,,0.00,1084.000000,,2013-06-15 19:53:00,
2013-06-15 14:02:00,58.0,24.0,-100.00,SW,225,3.0,7.0,27,0.00,,,0.00,1084.000000,,2013-06-15 20:02:00,
2013-06-15 14:11:00,58.0,24.0,-100.00,SW,225,3.0,7.0,27,0.00,,,0.00,1084.000000,,2013-06-15 20:11:00,
2013-06-15 14:43:00,62.0,33.0,-100.00,SW,223,3.0,7.0,33,0.00,,,0.00,1151.000000,,2013-06-15 20:43:00,
2013-06-15 14:53:00,62.0,33.0,-100.00,SW,223,3.0,7.0,33,0.00,,,0.00,1151.000000,,2013-06-15 20:53:00,
2013-06-15 15:01:00,62.0,33.0,-100.00,SW,223,3.0,7.0,33,0.00,,,0.00,1151.000000,,2013-06-15 21:01:00,
2013-06-15 15:11:00,62.0,33.0,-100.00,SW,223,3.0,7.0,33,0.00,,,0.00,1151.000000,,2013-06-15 21:11:00,
2013-06-15 15:42:00,63.0,30.0,-100.00,SSW,210,3.0,9.0,29,0.00,,,0.00,1159.000000,,2013-06-15 21:42:00,
2013-06-15 15:53:00,63.0,30.0,-100.00,SSW,210,3.0,9.0,29,0.00,,,0.00,1159.000000,,2013-06-15 21:53:00,
2013-06-15 16:01:00,63.0,30.0,-100.00,SSW,210,3.0,9.0,29,0.00,,,0.00,1159.000000,,2013-06-15 22:01:00,
2013-06-15 16:11:00,63.0,30.0,-100.00,SSW,210,3.0,9.0,29,0.00,,,0.00,1159.000000,,2013-06-15 22:11:00,
2013-06-15 16:33:00,64.0,33.0,-100.00,SSW,206,4.0,9.0,31,0.00,,,0.00,1205.000000,,2013-06-15 22:33:00,
2013-06-15 16:43:00,64.0,33.0,-100.00,SSW,206,4.0,9.0,31,0.00,,,0.00,1205.000000,,2013-06-15 22:43:00,
2013-06-15 16:53:00,64.0,33.0,-100.00,SSW,206,4.0,9.0,31,0.00,,,0.00,1205.000000,,2013-06-15 22:53:00,
2013-06-15 17:01:00,64.0,33.0,-100.00,SSW,206,4.0,9.0,31,0.00,,,0.00,1205.000000,,2013-06-15 23:01:00,
2013-06-15 17:11:00,64.0,33.0,-100.00,SSW,206,4.0,9.0,31,0.00,,,0.00,1205.000000,,2013-06-15 23:11:00,
2013-06-15 17:43:00,66.0,27.0,-100.00,SSW,203,4.0,7.0,23,0.00,,,0.00,1102.000000,,2013-06-15 23:43:00,
2013-06-15 17:53:00,66.0,27.0,-100.00,SSW,203,4.0,7.0,23,0.00,,,0.00,1102.000000,,2013-06-15 23:53:00,
2013-06-15 18:01:00,66.0,27.0,-100.00,SSW,203,4.0,7.0,23,0.00,,,0.00,1102.000000,,2013-06-16 00:01:00,
2013-06-15 18:11:00,66.0,27.0,-100.00,SSW,203,4.0,7.0,23,0.00,,,0.00,1102.000000,,2013-06-16 00:11:00,
2013-06-15 18:34:00,66.0,29.0,-100.00,SW,217,3.0,9.0,25,0.00,,,-99.99,867.000000,,2013-06-16 00:34:00,
2013-06-15 18:43:00,66.0,29.0,-100.00,SW,217,3.0,9.0,25,0.00,,,-99.99,867.000000,,2013-06-16 00:43:00,
2013-06-15 18:52:00,66.0,29.0,-100.00,SW,217,3.0,9.0,25,0.00,,,-99.99,867.000000,,2013-06-16 00:52:00,
2013-06-15 19:01:00,66.0,29.0,-100.00,SW,217,3.0,9.0,25,0.00,,,-99.99,867.000000,,2013-06-16 01:01:00,
2013-06-15 19:11:00,66.0,29.0,-100.00,SW,217,3.0,9.0,25,0.00,,,-99.99,867.000000,,2013-06-16 01:11:00,
2013-06-15 19:43:00,63.0,27.0,-100.00,WSW,239,2.0,7.0,25,0.00,,,0.00,648.000000,,2013-06-16 01:43:00,
2013-06-15 19:53:00,63.0,27.0,-100.00,WSW,239,2.0,7.0,25,0.00,,,0.00,648.000000,,2013-06-16 01:53:00,
2013-06-15 20:01:00,63.0,27.0,-100.00,WSW,239,2.0,7.0,25,0.00,,,0.00,648.000000,,2013-06-16 02:01:00,
2013-06-15 20:11:00,63.0,27.0,-100.00,WSW,239,2.0,7.0,25,0.00,,,0.00,648.000000,,2013-06-16 02:11:00,
2013-06-15 20:33:00,61.0,29.0,-100.00,South,177,3.0,8.0,30,0.00,,,0.00,70.000000,,2013-06-16 02:33:00,
2013-06-15 20:43:00,61.0,29.0,-100.00,South,177,3.0,8.0,30,0.00,,,0.00,70.000000,,2013-06-16 02:43:00,
2013-06-15 20:53:00,61.0,29.0,-100.00,South,177,3.0,8.0,30,0.00,,,0.00,70.000000,,2013-06-16 02:53:00,
2013-06-15 21:01:00,61.0,29.0,-100.00,South,177,3.0,8.0,30,0.00,,,0.00,70.000000,,2013-06-16 03:01:00,
2013-06-15 21:11:00,61.0,29.0,-100.00,South,177,3.0,8.0,30,0.00,,,0.00,70.000000,,2013-06-16 03:11:00,
2013-06-15 21:43:00,56.0,29.0,-100.00,NNW,348,2.0,6.0,36,0.00,,,0.00,76.000000,,2013-06-16 03:43:00,
2013-06-15 21:53:00,56.0,29.0,-100.00,NNW,348,2.0,6.0,36,0.00,,,0.00,76.000000,,2013-06-16 03:53:00,
2013-06-15 22:01:00,56.0,29.0,-100.00,NNW,348,2.0,6.0,36,0.00,,,0.00,76.000000,,2013-06-16 04:01:00,
2013-06-15 22:12:00,56.0,29.0,-100.00,NNW,348,2.0,6.0,36,0.00,,,0.00,76.000000,,2013-06-16 04:12:00,
2013-06-15 22:34:00,54.0,22.0,-100.00,NNW,335,3.0,5.0,28,0.00,,,0.00,15.000000,,2013-06-16 04:34:00,
2013-06-15 22:43:00,54.0,22.0,-100.00,NNW,335,3.0,5.0,28,0.00,,,0.00,15.000000,,2013-06-16 04:43:00,
2013-06-15 22:53:00,54.0,22.0,-100.00,NNW,335,3.0,5.0,28,0.00,,,0.00,15.000000,,2013-06-16 04:53:00,
2013-06-15 23:01:00,54.0,22.0,-100.00,NNW,335,3.0,5.0,28,0.00,,,0.00,15.000000,,2013-06-16 05:01:00,
2013-06-15 23:11:00,54.0,22.0,-100.00,NNW,335,3.0,5.0,28,0.00,,,0.00,15.000000,,2013-06-16 05:11:00,
2013-06-15 23:34:00,53.0,22.0,-100.00,South,182,3.0,6.0,30,0.00,,,0.00,2.000000,,2013-06-16 05:34:00,
2013-06-15 23:43:00,53.0,22.0,-100.00,South,182,3.0,6.0,30,0.00,,,0.00,2.000000,,2013-06-16 05:43:00,
2013-06-15 23:52:00,53.0,22.0,-100.00,South,182,3.0,6.0,30,0.00,,,0.00,2.000000,,2013-06-16 05:52:00,